Henderson, Nevada Weather observations

Data are for observation ending at time listed.
 Day   Time    Ave.   Ave.  Ave.  Vector   Max.   Stn.    Total    Solar   Ave.  
  of    of     Air    Rel.  Wind   Wind    Wind   Baro.  Precip.   Rad.    Soil  
Year   Day     Temp.  Hum.  Speed  Dir.    Gust   Pres.                    Temp. 
2016   (PST)    F      %     mph   deg.    mph     mb.     in.     W/m2     F   
------------------------------------------------------------------------------
 236   20:30   87.1    30    1.1    47      3.7   938.5    0.00       0    86.1
 236   20:40   86.9    31    1.3    39      3.1   938.6    0.00       0    85.5
 236   20:50   86.8    31    1.8    89      3.7   938.5    0.00       0    85.0
 236   21:00   87.5    30    2.8   106      4.3   938.5    0.00       0    84.8
 236   21:10   87.4    30    1.2   102      3.3   938.6    0.00       0    84.8
 236   21:20   86.1    31    0.0    68      0.5   938.5    0.00       0    84.1
 236   21:30   85.0    33    0.6   201      1.5   938.5    0.00       0    83.4
 236   21:40   84.6    32    0.6   157      2.0   938.5    0.00       0    82.8
 236   21:50   84.5    33    1.5   323      3.9   938.8    0.00       0    82.5
 236   22:00   84.5    35    2.2   316      4.5   938.9    0.00       0    82.5
 236   22:10   84.1    36    0.9   326      2.2   938.9    0.00       0    82.3
 236   22:20   83.5    38    2.3   291      3.7   938.9    0.00       0    82.1
 236   22:30   83.6    38    2.8   276      5.0   939.1    0.00       0    82.1
 236   22:40   83.8    38    5.0   306     11.4   939.6    0.00       0    82.2
 236   22:50   84.2    36    4.3   308      9.0   939.9    0.00       0    82.6
 236   23:00   84.6    33    2.9   304      6.9   939.8    0.00       0    82.9
 236   23:10   85.0    29    3.0   279      6.0   939.5    0.00       0    83.1
 236   23:20   85.2    27    2.9   259      5.8   939.3    0.00       0    83.3
 236   23:30   85.3    26    1.7   237      5.8   939.2    0.00       0    83.4
 236   23:40   85.4    25    1.9   239      5.0   939.4    0.00       0    83.5
 236   23:50   86.4    24    7.1   102     23.1   939.4    0.00       0    83.1
 237    0:00   88.0    19    5.0   122     16.8   939.0    0.00       0    82.8
 237    0:10   87.4    19    4.7   169     11.2   938.6    0.00       0    83.8
 237    0:20   87.3    19    6.8   188     11.9   938.4    0.00       0    83.9
 237    0:30   87.0    19    8.0   191     12.9   938.0    0.00       0    84.0
 237    0:40   86.8    19    5.7   199     12.9   937.7    0.00       0    84.0
 237    0:50   86.3    20    3.4   213     10.2   937.6    0.00       0    83.7
 237    1:00   86.0    21    4.6   204     12.9   937.6    0.00       0    83.4
 237    1:10   86.4    20    3.3   202      6.5   937.4    0.00       0    83.4
 237    1:20   85.8    22    1.5   177      5.8   937.5    0.00       0    83.0
 237    1:30   84.5    25    2.0     3      5.0   937.8    0.00       0    82.4
 237    1:40   82.9    28    1.7    17      5.1   937.9    0.00       0    81.6
 237    1:50   82.0    29    1.5    27      3.7   938.0    0.00       0    80.7
 237    2:00   81.7    29    1.5   342      5.3   938.0    0.00       0    79.9
 237    2:10   81.3    30    0.5   315      2.3   938.0    0.00       0    79.2
 237    2:20   80.2    31    0.0     0      0.0   938.0    0.00       0    78.3
 237    2:30   79.9    33    1.3    72      6.1   938.0    0.00       0    77.5
 237    2:40   80.7    32    1.0    35      3.4   938.1    0.00       0    77.2
 237    2:50   80.3    32    0.4     6      2.9   938.1    0.00       0    76.9
 237    3:00   79.2    34    1.5   230      3.2   937.9    0.00       0    76.4
 237    3:10   78.1    35    2.1   238      3.1   938.0    0.00       0    75.8
 237    3:20   78.1    35    1.7   234      3.1   937.9    0.00       0    75.4
 237    3:30   78.3    36    1.5   195      3.2   938.0    0.00       0    75.0
 237    3:40   78.6    35    3.3   198      7.5   938.1    0.00       0    74.9
 237    3:50   78.8    34    2.1   211      3.4   938.2    0.00       0    74.9
 237    4:00   78.6    34    1.9   223      3.5   938.2    0.00       0    74.8
 237    4:10   78.5    35    2.1   215      3.7   938.2    0.00       0    74.8
 237    4:20   78.7    34    2.5   212      4.3   938.3    0.00       0    74.8
 237    4:30   79.1    33    2.3   194      3.9   938.4    0.00       0    75.0
 237    4:40   79.5    33    3.0   188      5.0   938.4    0.00       0    75.2
 237    4:50   79.3    34    1.0   232      3.7   938.5    0.00       0    75.3
 237    5:00   77.9    36    0.7   359      2.9   938.6    0.00       1    74.9
 237    5:10   77.1    38    0.9   262      2.6   938.7    0.00       6    74.4
 237    5:20   76.7    41    1.6   268      2.9   938.8    0.00       7    74.2
 237    5:30   76.3    43    1.8   284      3.2   938.9    0.00      18    73.9
 237    5:40   76.1    44    2.1   295      3.7   939.1    0.00      27    73.8
 237    5:50   76.4    44    1.3   283      2.5   939.2    0.00      37    73.7
 237    6:00   76.8    43    1.6   331      4.5   939.3    0.00      47    73.6
 237    6:10   77.5    44    3.4   315      6.1   939.4    0.00      77    73.9
 237    6:20   77.6    46    2.3   309      4.9   939.4    0.00     157    74.6
 237    6:30   78.2    45    1.3   315      2.8   939.5    0.00     192    75.0
 237    6:40   79.4    43    1.7   312      2.9   939.6    0.00     227    76.5
 237    6:50   80.5    41    1.8   300      3.6   939.6    0.00     264    79.3
 237    7:00   82.0    39    1.1   354      3.2   939.7    0.00     303    82.1
 237    7:10   83.2    36    1.0   360      2.9   939.8    0.00     341    84.5
 237    7:20   83.9    35    1.2    58      4.9   939.7    0.00     377    86.6
 237    7:30   83.8    36    1.7    94      3.5   939.7    0.00     415    88.0
 237    7:40   84.2    34    1.6    95      3.4   939.8    0.00     450    89.4
 237    7:50   85.0    32    1.2    89      3.7   939.8    0.00     486    90.9
 237    8:00   87.0    30    0.8    27      2.7   939.8    0.00     523    92.7
 237    8:10   87.1    29    1.6   339      5.0   939.9    0.00     558    94.3
 237    8:20   86.9    29    1.1   308      3.2   940.0    0.00     592    95.4
 237    8:30   86.7    29    2.2   320      4.9   940.0    0.00     625    96.3
 237    8:40   87.5    29    2.1   358      4.8   940.1    0.00     659    96.9
 237    8:50   87.9    28    1.4   283      3.7   939.9    0.00     690    97.7
 237    9:00   88.8    28    1.5   354      4.6   939.9    0.00     722    98.7
 237    9:10   89.8    27    1.8    37      4.5   939.9    0.00     750    99.7
 237    9:20   90.2    26    1.9    69      4.5   939.9    0.00     777    100.5
 237    9:30   89.7    26    1.8    98      4.0   939.9    0.00     803    100.7
 237    9:40   90.6    26    1.9   103      5.0   939.7    0.00     830    101.4
 237    9:50   91.1    25    1.7    98      4.5   939.7    0.00     854    101.8
 237   10:00   92.7    24    1.6    50      4.7   939.6    0.00     875    102.5
 237   10:10   92.4    24    2.4   103      4.5   939.5    0.00     896    103.0
 237   10:20   93.3    24    1.7     6      5.4   939.4    0.00     913    103.7
 237   10:30   92.9    24    3.2   326      7.6   939.4    0.00     930    104.3
 237   10:40   93.2    24    2.6   340      5.4   939.1    0.00     945    104.4
 237   10:50   94.3    24    1.8   304      4.1   939.0    0.00     957    104.9
 237   11:00   95.0    23    2.2   293      5.3   938.8    0.00     969    105.7
 237   11:10   96.4    21    2.1    68      6.3   938.7    0.00     979    106.3
 237   11:20   96.5    21    2.5    77      5.5   938.6    0.00     983    106.7
 237   11:30   96.3    20    2.0    21      5.7   938.4    0.00     984    107.1
 237   11:40   96.2    20    1.7   277      3.7   938.2    0.00     984    107.2
 237   11:50   97.6    20    1.9   349      5.7   938.1    0.00     984    107.6
 237   12:00   98.0    19    2.8   326      6.7   937.8    0.00     985    108.0
 237   12:10   97.5    19    2.5   294      6.1   937.7    0.00     983    107.9
 237   12:20   98.0    18    2.6    74      6.6   937.7    0.00     983    107.9
 237   12:30   98.3    19    3.5   330      8.0   937.5    0.00     978    107.9
 237   12:40   98.8    17    3.3   322     11.0   937.5    0.00     970    107.8
 237   12:50   98.8    17    2.9   313      6.4   937.2    0.00     958    107.7
 237   13:00   99.8    16    2.5   336      7.0   937.0    0.00     952    108.0
 237   13:10  100.7    16    2.2    18      6.5   936.9    0.00     941    108.4
 237   13:20  101.4    15    3.0    28      7.3   936.7    0.00     922    109.0
 237   13:30  100.5    15    3.6    70     11.0   936.5    0.00     792    109.0
 237   13:40  100.8    14    3.3    93      8.5   936.3    0.00     887    108.2
 237   13:50  101.6    14    2.0    38      7.5   936.0    0.00     806    108.4
 237   14:00  102.5    14    1.7    48      5.6   935.8    0.00     662    108.6
 237   14:10  100.0    15    3.5    65      8.6   935.8    0.00     163    107.2
 237   14:20   98.5    15    2.7   317      5.3   935.7    0.00     448    104.8
 237   14:30   99.8    14    2.6   287      5.5   935.4    0.00     585    104.3
 237   14:40  101.5    14    3.2   344      9.3   935.3    0.00     710    105.3
 237   14:50  101.7    15    3.4   316     11.2   935.2    0.00     764    106.3
 237   15:00  102.3    14    2.0   354      5.8   935.0    0.00     542    106.9
 237   15:10  101.0    14    2.9    70      8.4   935.0    0.00     196    105.9
 237   15:20  100.9    14    2.8    70      6.1   934.8    0.00     401    104.6
 237   15:30  101.0    14    2.8    62      8.0   934.7    0.00     365    104.1
 237   15:40  101.7    14    2.5    78      8.3   934.6    0.00     566    104.7
 237   15:50  101.5    14    6.0    97     11.8   934.5    0.00     523    105.5
 237   16:00  101.3    14    6.1    97     11.6   934.4    0.00     491    105.6
 237   16:10  100.8    14    6.1   103     10.5   934.4    0.00     437    105.4
 237   16:20  100.6    14    5.6   100     11.0   934.2    0.00     383    105.1
 237   16:30  100.8    14    7.1    99     15.3   934.1    0.00     322    104.6
 237   16:40  100.2    13    5.2    99     10.8   934.0    0.00     105    103.7
 237   16:50   99.8    14    6.7   106     11.0   934.0    0.00     110    102.2
 237   17:00   99.7    13    4.1   107      9.0   933.9    0.00      75    101.0
 237   17:10   99.3    13    2.3   109      7.2   933.8    0.00      74    99.7
 237   17:20   99.0    12    1.1   280      4.5   933.7    0.00      74    98.5
 237   17:30   99.5    13    1.3    54      2.9   933.7    0.00     124    97.8
 237   17:40  100.0    13    0.2   184      2.6   933.8    0.00      98    97.5
 237   17:50   99.7    12    1.8   211      5.0   933.7    0.00      77    97.1
 237   18:00   99.2    12    1.9   233      5.8   933.8    0.00      56    96.8
 237   18:10   98.5    12    2.2   255      6.1   933.8    0.00      30    96.3
 237   18:20   97.8    11    4.0   248     11.0   933.9    0.00      12    95.5
 237   18:30   97.5    11    2.8   235     10.1   933.8    0.00       7    94.9
 237   18:40   97.1    11    3.9   231      9.4   934.0    0.00       2    94.4
 237   18:50   96.6    11    3.0   240      8.1   934.0    0.00       0    93.7
 237   19:00   96.2    11    2.6   240      7.9   934.0    0.00       0    93.0
 237   19:10   95.7    11    2.9   243      6.8   934.1    0.00       0    92.3
 237   19:20   95.3    11    3.3   243      8.8   934.0    0.00       0    91.7
 237   19:30   95.2    11    3.1   241      8.2   934.0    0.00       0    91.3
 237   19:40   94.9    11    3.3   243      9.6   934.3    0.00       0    91.0
 237   19:50   94.9    11    3.3   236      7.2   934.3    0.00       0    90.8
 237   20:00   94.6    11    3.2   235      9.0   934.4    0.00       0    90.5
 237   20:10   94.6    11    3.0   231      9.4   934.4    0.00       0    90.2
 237   20:20   94.4    11    3.2   237      8.7   934.5    0.00       0    89.9

Return to Henderson, Nevada graphs page.


Western Regional Climate Center,wrcc@dri.edu